Time;durP1;ratioP1;P1;durP2;ratioP2;P2;SDS_P1;SDS_P2;PMS_P1;PMS_P2;Temp;Humidity;BMP_temperature;BMP_pressure;BME280_temperature;BME280_humidity;BME280_pressure;Samples;Min_cycle;Max_cycle;Signal;HPM_P1;HPM_P2
2022/07/24 00:00:05;;;;;;;8.07;7.50;;;;;;;22.25;97.07;100538.97;4944861;28;20212;-77
2022/07/24 00:02:30;;;;;;;8.40;7.80;;;;;;;22.18;97.00;100537.63;4942528;28;20210;-76
2022/07/24 00:04:56;;;;;;;8.10;7.50;;;;;;;22.10;97.03;100535.41;4951212;28;20597;-77
2022/07/24 00:07:22;;;;;;;8.87;8.17;;;;;;;22.03;97.18;100536.63;4947035;28;20205;-76
2022/07/24 00:09:48;;;;;;;7.47;6.97;;;;;;;21.96;97.29;100536.13;4944336;28;20238;-76
2022/07/24 00:12:13;;;;;;;8.67;7.87;;;;;;;21.88;97.93;100533.88;4944871;29;20229;-77
2022/07/24 00:14:39;;;;;;;8.10;7.50;;;;;;;21.80;97.98;100536.09;4945668;28;20261;-77
2022/07/24 00:17:04;;;;;;;8.00;7.40;;;;;;;21.73;98.33;100542.59;4945384;29;20187;-76
2022/07/24 00:19:29;;;;;;;8.53;7.93;;;;;;;21.67;98.48;100538.50;4944100;29;20210;-76
2022/07/24 00:21:57;;;;;;;8.33;7.73;;;;;;;21.63;98.96;100547.47;4942918;29;20638;-76
2022/07/24 00:24:22;;;;;;;8.53;7.90;;;;;;;21.60;99.55;100547.66;4938360;28;20191;-77
2022/07/24 00:26:47;;;;;;;8.57;7.97;;;;;;;21.56;99.99;100543.44;4954773;28;20281;-76
2022/07/24 00:29:13;;;;;;;8.57;7.97;;;;;;;21.53;100.00;100552.34;4941876;28;20234;-76
2022/07/24 00:31:38;;;;;;;8.53;7.93;;;;;;;21.49;100.00;100548.16;4958855;28;20195;-76
2022/07/24 00:34:04;;;;;;;8.30;7.60;;;;;;;21.45;100.00;100543.97;4938351;29;20690;-76
2022/07/24 00:36:30;;;;;;;8.57;7.90;;;;;;;21.40;100.00;100543.38;4947463;28;20651;-76
2022/07/24 00:38:56;;;;;;;8.73;7.93;;;;;;;21.35;100.00;100537.47;4962282;28;20207;-76
2022/07/24 00:41:21;;;;;;;8.73;8.03;;;;;;;21.27;100.00;100541.34;4941566;28;20650;-76
2022/07/24 00:44:19;;;;;;;8.77;8.17;;;;;;;21.20;100.00;100539.94;4944030;28;21118;-76
2022/07/24 00:46:45;;;;;;;8.40;7.80;;;;;;;21.16;100.00;100541.03;4910968;28;20741;-76
2022/07/24 00:49:13;;;;;;;8.93;8.33;;;;;;;21.13;100.00;100534.13;4943601;28;20293;-76
2022/07/24 00:51:41;;;;;;;8.33;7.77;;;;;;;21.11;100.00;100525.47;4945113;28;20193;-76
2022/07/24 00:54:08;;;;;;;8.37;7.77;;;;;;;21.11;100.00;100529.84;4943888;28;20190;-77
2022/07/24 00:56:34;;;;;;;8.50;7.90;;;;;;;21.08;100.00;100522.97;4942679;29;20570;-77
2022/07/24 00:59:00;;;;;;;8.30;7.60;;;;;;;21.06;100.00;100524.81;4938231;29;20213;-77
2022/07/24 01:01:26;;;;;;;9.00;8.33;;;;;;;21.04;100.00;100529.31;4947592;28;20742;-78
2022/07/24 01:03:52;;;;;;;9.10;8.40;;;;;;;21.03;100.00;100527.59;4954654;28;20186;-77
2022/07/24 01:06:17;;;;;;;8.77;8.07;;;;;;;21.01;100.00;100530.31;4949850;28;20197;-78
2022/07/24 01:08:43;;;;;;;8.00;7.40;;;;;;;21.01;100.00;100537.38;4945334;28;20246;-77
2022/07/24 01:11:09;;;;;;;8.90;8.30;;;;;;;21.01;100.00;100530.31;4949951;29;20212;-77
2022/07/24 01:13:38;;;;;;;8.53;7.93;;;;;;;21.01;100.00;100530.31;4944404;28;20195;-77
2022/07/24 01:16:04;;;;;;;8.97;8.27;;;;;;;21.00;100.00;100525.16;4948999;28;20248;-77
2022/07/24 01:18:30;;;;;;;8.70;8.10;;;;;;;20.98;100.00;100519.09;4951427;28;20221;-77
2022/07/24 01:20:55;;;;;;;8.47;7.87;;;;;;;20.97;100.00;100514.75;4942592;29;20294;-77
2022/07/24 01:23:21;;;;;;;8.97;8.37;;;;;;;20.92;100.00;100515.00;4964530;28;20361;-76
2022/07/24 01:25:47;;;;;;;8.83;8.13;;;;;;;20.89;100.00;100523.03;4944638;28;20944;-76
2022/07/24 01:28:13;;;;;;;8.70;8.10;;;;;;;20.85;100.00;100524.97;4947535;28;20258;-78
2022/07/24 01:30:38;;;;;;;8.90;8.10;;;;;;;20.80;100.00;100521.69;4947815;28;20190;-77
2022/07/24 01:33:04;;;;;;;9.60;8.80;;;;;;;20.77;100.00;100521.00;4947976;29;20202;-77
2022/07/24 01:35:30;;;;;;;8.53;7.90;;;;;;;20.74;100.00;100513.22;4948391;28;20213;-77
2022/07/24 01:37:56;;;;;;;8.60;7.93;;;;;;;20.72;100.00;100521.19;4949289;28;20285;-77
2022/07/24 01:40:22;;;;;;;9.20;8.53;;;;;;;20.66;100.00;100516.22;4950692;28;20676;-77
2022/07/24 01:42:48;;;;;;;8.97;8.37;;;;;;;20.60;100.00;100519.13;4948790;28;20190;-78
2022/07/24 01:45:13;;;;;;;9.13;8.43;;;;;;;20.52;100.00;100520.34;4950005;29;20268;-76
2022/07/24 01:47:40;;;;;;;9.47;8.77;;;;;;;20.45;100.00;100528.59;4950255;28;20687;-77
2022/07/24 01:50:06;;;;;;;8.63;8.03;;;;;;;20.38;100.00;100520.16;4953371;28;20607;-77
2022/07/24 01:52:31;;;;;;;9.90;9.10;;;;;;;20.30;100.00;100527.50;4962306;28;20212;-76
2022/07/24 01:54:57;;;;;;;9.60;8.90;;;;;;;20.23;100.00;100526.94;4944590;29;20659;-77
2022/07/24 01:57:42;;;;;;;9.00;8.40;;;;;;;20.16;100.00;100525.53;4950873;29;20208;-77
2022/07/24 02:00:12;;;;;;;9.67;9.00;;;;;;;20.11;100.00;100520.50;4937100;29;20566;-76
2022/07/24 02:02:41;;;;;;;8.80;8.10;;;;;;;20.06;100.00;100525.94;4947201;28;20199;-78
2022/07/24 02:05:08;;;;;;;9.07;8.37;;;;;;;20.01;100.00;100527.94;4947611;28;20274;-76
2022/07/24 02:07:33;;;;;;;9.50;8.60;;;;;;;19.96;100.00;100519.38;4961560;28;20206;-76
2022/07/24 02:09:59;;;;;;;9.10;8.40;;;;;;;19.89;100.00;100521.44;4948047;29;20257;-76
2022/07/24 02:12:24;;;;;;;8.20;7.60;;;;;;;19.85;100.00;100527.69;4941832;28;20209;-76
2022/07/24 02:14:49;;;;;;;9.33;8.37;;;;;;;19.79;100.00;100525.38;4947584;28;20288;-78
2022/07/24 02:17:15;;;;;;;9.00;8.30;;;;;;;19.76;100.00;100528.97;4949452;28;20225;-77
2022/07/24 02:19:40;;;;;;;8.73;8.13;;;;;;;19.72;100.00;100526.53;4945726;28;20245;-77
2022/07/24 02:22:12;;;;;;;9.20;8.53;;;;;;;19.70;100.00;100534.50;4962536;28;20230;-76
2022/07/24 02:24:37;;;;;;;8.53;7.93;;;;;;;19.68;100.00;100532.84;4959783;28;20291;-78
2022/07/24 02:27:02;;;;;;;8.53;7.90;;;;;;;19.65;100.00;100539.94;4947672;29;20225;-77
2022/07/24 02:29:28;;;;;;;8.70;8.10;;;;;;;19.63;100.00;100533.91;4962734;28;20221;-76
2022/07/24 02:31:53;;;;;;;9.37;8.57;;;;;;;19.60;100.00;100544.53;4943325;28;20199;-76
2022/07/24 02:34:18;;;;;;;9.13;8.53;;;;;;;19.56;100.00;100544.72;4949319;28;20194;-77
2022/07/24 02:36:44;;;;;;;8.80;8.10;;;;;;;19.53;100.00;100545.69;4946206;28;20263;-76
2022/07/24 02:39:10;;;;;;;9.10;8.40;;;;;;;19.52;100.00;100546.63;4947707;28;20591;-76
2022/07/24 02:41:35;;;;;;;9.63;8.87;;;;;;;19.52;100.00;100541.38;4943542;28;20258;-76
2022/07/24 02:44:00;;;;;;;8.87;8.27;;;;;;;19.52;100.00;100543.16;4940488;28;20197;-77
2022/07/24 02:46:26;;;;;;;9.60;9.00;;;;;;;19.50;100.00;100541.44;4946468;29;20195;-76
2022/07/24 02:48:51;;;;;;;9.70;9.00;;;;;;;19.53;100.00;100545.69;4947244;28;20297;-77
2022/07/24 02:51:17;;;;;;;9.90;9.20;;;;;;;19.53;100.00;100547.47;4946917;28;20198;-76
2022/07/24 02:53:42;;;;;;;10.20;9.47;;;;;;;19.54;100.00;100543.94;4947783;29;20212;-76
2022/07/24 02:56:08;;;;;;;8.93;8.27;;;;;;;19.49;100.00;100544.16;4947955;28;20224;-76
2022/07/24 02:58:34;;;;;;;9.97;9.07;;;;;;;19.45;100.00;100545.19;4956557;28;20253;-76
2022/07/24 03:01:02;;;;;;;9.67;8.97;;;;;;;19.40;100.00;100555.00;4948747;28;20228;-76
2022/07/24 03:03:28;;;;;;;9.93;9.23;;;;;;;19.36;100.00;100556.91;4964049;28;20193;-76
2022/07/24 03:05:53;;;;;;;10.03;9.33;;;;;;;19.33;100.00;100554.41;4944742;28;20198;-76
2022/07/24 03:08:18;;;;;;;9.40;8.70;;;;;;;19.30;100.00;100555.41;4944381;29;20307;-76
2022/07/24 03:10:44;;;;;;;9.73;8.93;;;;;;;19.26;100.00;100551.19;4943963;29;20205;-76
2022/07/24 03:13:09;;;;;;;9.80;9.10;;;;;;;19.23;100.00;100553.09;4945100;29;20277;-76
2022/07/24 03:15:35;;;;;;;9.80;9.10;;;;;;;19.19;100.00;100555.00;4958408;28;20572;-76
2022/07/24 03:18:00;;;;;;;9.67;8.87;;;;;;;19.16;100.00;100550.69;4939046;28;20556;-77
2022/07/24 03:20:27;;;;;;;9.67;8.97;;;;;;;19.13;100.00;100553.47;4959074;28;20708;-76
2022/07/24 03:22:52;;;;;;;10.23;9.43;;;;;;;19.13;100.00;100560.47;4941934;29;20294;-77
2022/07/24 03:25:18;;;;;;;9.93;9.23;;;;;;;19.11;100.00;100557.94;4943707;28;20201;-76
2022/07/24 03:27:45;;;;;;;9.53;8.83;;;;;;;19.11;100.00;100563.19;4947370;29;20204;-76
2022/07/24 03:30:11;;;;;;;9.77;9.03;;;;;;;19.10;100.00;100557.97;4947523;28;20299;-77
2022/07/24 03:32:37;;;;;;;9.73;9.03;;;;;;;19.08;100.00;100565.03;4942851;29;20299;-77
2022/07/24 03:35:03;;;;;;;9.47;8.87;;;;;;;19.05;100.00;100560.78;4946609;29;20280;-77
2022/07/24 03:37:28;;;;;;;9.97;9.17;;;;;;;19.03;100.00;100562.63;4943200;28;20186;-75
2022/07/24 03:39:54;;;;;;;9.43;8.73;;;;;;;19.02;100.00;100560.91;4942281;29;20203;-76
2022/07/24 03:42:19;;;;;;;10.20;9.40;;;;;;;19.01;100.00;100560.06;4946839;28;20604;-77
2022/07/24 03:44:45;;;;;;;9.83;9.13;;;;;;;19.01;100.00;100560.06;4946576;28;20190;-78
2022/07/24 03:47:10;;;;;;;9.73;9.03;;;;;;;19.00;100.00;100563.59;4944563;29;20222;-77
2022/07/24 03:49:36;;;;;;;9.53;8.83;;;;;;;19.01;100.00;100564.44;4942206;28;20214;-77
2022/07/24 03:52:02;;;;;;;9.47;8.77;;;;;;;18.99;100.00;100564.50;4944361;29;20224;-75
2022/07/24 03:54:27;;;;;;;9.50;8.80;;;;;;;18.99;100.00;100564.50;4942277;28;20197;-76
2022/07/24 03:56:53;;;;;;;9.57;8.87;;;;;;;18.98;100.00;100567.22;4946602;28;20207;-77
2022/07/24 03:59:18;;;;;;;9.87;9.17;;;;;;;18.98;100.00;100575.91;4943524;28;20210;-77
2022/07/24 04:01:44;;;;;;;9.20;8.60;;;;;;;18.97;100.00;100568.97;4937987;28;20206;-77
2022/07/24 04:04:09;;;;;;;9.63;8.93;;;;;;;18.97;100.00;100574.19;4946736;29;20190;-76
2022/07/24 04:06:35;;;;;;;9.73;9.00;;;;;;;18.99;100.00;100571.50;4942863;28;20249;-75
2022/07/24 04:09:03;;;;;;;9.50;8.83;;;;;;;19.01;100.00;100574.94;4943220;28;20692;-77
2022/07/24 04:11:28;;;;;;;9.70;9.00;;;;;;;19.04;100.00;100573.06;4945822;28;20258;-76
2022/07/24 04:13:54;;;;;;;9.10;8.50;;;;;;;19.09;100.00;100578.13;4948453;28;20856;-75
2022/07/24 04:16:19;;;;;;;9.13;8.50;;;;;;;19.13;100.00;100579.72;4941722;29;20203;-77
2022/07/24 04:18:45;;;;;;;9.80;9.10;;;;;;;19.19;100.00;100576.81;4944413;28;20611;-77
2022/07/24 04:21:10;;;;;;;9.40;8.70;;;;;;;19.28;100.00;100577.38;4944491;29;20192;-75
2022/07/24 04:23:36;;;;;;;9.30;8.70;;;;;;;19.38;100.00;100578.69;4946544;28;20205;-75
2022/07/24 04:26:01;;;;;;;9.87;9.17;;;;;;;19.49;100.00;100578.25;4946341;28;20194;-76
2022/07/24 04:28:27;;;;;;;8.93;8.33;;;;;;;19.64;100.00;100592.50;4945323;28;20257;-77
2022/07/24 04:30:52;;;;;;;9.83;9.03;;;;;;;19.73;100.00;100588.63;4944503;28;20194;-77
2022/07/24 04:33:18;;;;;;;9.13;8.43;;;;;;;19.78;100.00;100581.44;4945826;28;20568;-77
2022/07/24 04:35:43;;;;;;;8.87;8.27;;;;;;;19.85;100.00;100593.38;4943721;28;20682;-75
2022/07/24 04:38:08;;;;;;;9.20;8.57;;;;;;;19.98;100.00;100583.22;4947238;28;20184;-76
2022/07/24 04:40:34;;;;;;;9.67;8.97;;;;;;;20.11;100.00;100591.44;4948592;29;20201;-76
2022/07/24 04:42:59;;;;;;;8.63;8.03;;;;;;;20.21;100.00;100591.84;4955961;28;20791;-77
2022/07/24 04:45:25;;;;;;;8.57;7.97;;;;;;;20.37;100.00;100594.66;4939996;28;20202;-76
2022/07/24 04:47:50;;;;;;;8.50;7.90;;;;;;;20.90;100.00;100598.41;4941336;29;20210;-77
2022/07/24 04:50:16;;;;;;;8.67;8.07;;;;;;;21.67;100.00;100596.44;4940389;29;20210;-76
2022/07/24 04:52:41;;;;;;;8.43;7.83;;;;;;;22.01;100.00;100599.97;4940523;29;20195;-77
2022/07/24 04:55:08;;;;;;;8.27;7.60;;;;;;;21.99;99.63;100583.41;4943272;29;20200;-77
2022/07/24 04:57:33;;;;;;;8.73;8.13;;;;;;;21.88;100.00;100599.75;4945766;28;20278;-77
2022/07/24 04:59:58;;;;;;;8.13;7.53;;;;;;;21.89;100.00;100595.34;4939840;28;20297;-76
2022/07/24 05:02:24;;;;;;;8.50;7.90;;;;;;;21.93;100.00;100599.53;4951125;28;20208;-77
2022/07/24 05:04:49;;;;;;;8.37;7.57;;;;;;;21.97;99.76;100595.78;4944858;29;20202;-77
2022/07/24 05:07:15;;;;;;;8.33;7.73;;;;;;;21.97;99.83;100608.13;4941925;28;20269;-76
2022/07/24 05:09:40;;;;;;;8.10;7.50;;;;;;;22.00;99.94;100602.72;4940748;28;20202;-76
2022/07/24 05:12:06;;;;;;;8.23;7.63;;;;;;;22.08;99.55;100601.34;4945301;28;20195;-77
2022/07/24 05:14:31;;;;;;;7.57;7.07;;;;;;;22.25;99.17;100601.41;4948816;28;20193;-76
2022/07/24 05:16:56;;;;;;;8.53;7.93;;;;;;;22.45;97.95;100603.00;4945095;28;20249;-75
2022/07/24 05:19:22;;;;;;;7.87;7.33;;;;;;;22.70;97.54;100597.25;4939500;29;20210;-76
2022/07/24 05:21:47;;;;;;;8.23;7.63;;;;;;;23.26;96.06;100600.31;4943569;29;20195;-78
2022/07/24 05:24:12;;;;;;;7.60;7.10;;;;;;;23.96;93.55;100596.28;4947481;28;20295;-77
2022/07/24 05:26:38;;;;;;;7.70;7.17;;;;;;;24.68;91.57;100597.19;4948205;28;20552;-76
2022/07/24 05:29:05;;;;;;;8.27;7.63;;;;;;;25.47;89.16;100594.78;4939944;28;20245;-76
2022/07/24 05:31:31;;;;;;;7.13;6.63;;;;;;;26.51;86.58;100601.81;4947713;28;20651;-77
2022/07/24 05:33:58;;;;;;;7.30;6.80;;;;;;;27.59;83.26;100593.13;4946465;29;20194;-76
2022/07/24 05:36:24;;;;;;;7.27;6.70;;;;;;;28.53;80.52;100594.78;4949637;28;20193;-77
2022/07/24 05:38:50;;;;;;;7.77;7.27;;;;;;;29.29;78.10;100597.50;4961424;28;20290;-77
2022/07/24 05:41:15;;;;;;;7.87;7.27;;;;;;;30.00;76.45;100595.19;4945553;28;20282;-78
2022/07/24 05:43:41;;;;;;;7.10;6.60;;;;;;;30.48;75.03;100591.84;4946308;28;20558;-78
2022/07/24 05:46:06;;;;;;;6.83;6.33;;;;;;;30.81;73.65;100591.66;4965663;28;20206;-78
2022/07/24 05:48:32;;;;;;;7.63;7.03;;;;;;;31.20;72.60;100590.88;4947856;28;20692;-77
2022/07/24 05:50:57;;;;;;;7.37;6.87;;;;;;;31.69;71.37;100591.66;4948095;28;20198;-77
2022/07/24 05:53:23;;;;;;;7.67;7.17;;;;;;;32.12;69.95;100594.78;4949274;28;20234;-77
2022/07/24 05:55:50;;;;;;;7.73;7.23;;;;;;;32.51;68.17;100588.44;4949511;28;20198;-77
2022/07/24 05:58:16;;;;;;;6.87;6.37;;;;;;;32.79;66.24;100591.91;4951204;28;20218;-77
2022/07/24 06:00:41;;;;;;;7.93;7.32;;;;;;;33.06;66.12;100592.84;4966128;28;20187;-77
2022/07/24 06:03:07;;;;;;;7.90;7.30;;;;;;;33.37;64.15;100591.63;4950648;29;20188;-76
2022/07/24 06:05:32;;;;;;;7.40;6.80;;;;;;;33.54;63.77;100582.72;4950340;28;20194;-77
2022/07/24 06:07:58;;;;;;;7.20;6.70;;;;;;;33.79;63.03;100587.41;4951450;28;20350;-77
2022/07/24 06:10:23;;;;;;;7.88;7.28;;;;;;;33.98;63.28;100587.16;4950851;28;20190;-76
2022/07/24 06:12:48;;;;;;;7.10;6.60;;;;;;;34.22;62.83;100584.75;4951596;28;20720;-77
2022/07/24 06:15:17;;;;;;;7.22;6.63;;;;;;;34.57;62.94;100574.84;4948059;28;20207;-76
2022/07/24 06:17:45;;;;;;;7.05;6.55;;;;;;;34.91;60.92;100573.88;4932246;29;20202;-77
2022/07/24 06:20:12;;;;;;;8.00;7.40;;;;;;;34.88;61.23;100577.72;4943756;28;20202;-77
2022/07/24 06:22:39;;;;;;;7.75;7.25;;;;;;;35.09;61.31;100579.94;4967766;28;20185;-77
2022/07/24 06:25:05;;;;;;;7.65;7.15;;;;;;;35.41;61.10;100577.44;4964767;28;20244;-78
2022/07/24 06:27:30;;;;;;;7.70;7.20;;;;;;;35.67;60.08;100581.78;4946941;29;20211;-76
2022/07/24 06:29:56;;;;;;;7.82;7.20;;;;;;;35.75;59.33;100578.22;4948251;28;20222;-77
2022/07/24 06:32:21;;;;;;;7.95;7.35;;;;;;;35.84;59.09;100588.81;4949573;29;20446;-78
2022/07/24 06:34:47;;;;;;;7.32;6.82;;;;;;;35.88;59.31;100580.38;4951050;28;20245;-77
2022/07/24 06:37:12;;;;;;;7.05;6.55;;;;;;;36.03;58.88;100578.69;4951576;28;20191;-77
2022/07/24 06:39:38;;;;;;;7.53;7.03;;;;;;;36.11;59.54;100583.19;4950910;28;20206;-77
2022/07/24 06:42:03;;;;;;;7.88;7.38;;;;;;;36.26;58.37;100585.97;4946013;28;20182;-77
2022/07/24 06:44:29;;;;;;;8.13;7.53;;;;;;;36.21;58.63;100577.59;4965714;28;20549;-76
2022/07/24 06:46:54;;;;;;;8.07;7.47;;;;;;;36.36;58.81;100581.22;4960486;28;20198;-77
2022/07/24 06:49:20;;;;;;;7.35;6.78;;;;;;;36.54;58.71;100577.44;4949318;28;20222;-76
2022/07/24 06:51:47;;;;;;;7.63;7.13;;;;;;;36.69;58.63;100581.03;4948741;28;20210;-77
2022/07/24 06:54:13;;;;;;;7.78;7.28;;;;;;;36.78;58.39;100579.13;4965537;28;20594;-77
2022/07/24 06:56:38;;;;;;;7.18;6.68;;;;;;;36.88;58.58;100584.28;4965728;28;20178;-77
2022/07/24 06:59:04;;;;;;;7.90;7.38;;;;;;;37.01;57.96;100584.56;4950478;28;20199;-77
2022/07/24 07:01:29;;;;;;;7.20;6.70;;;;;;;36.90;58.01;100583.09;4950786;28;20273;-77
2022/07/24 07:03:55;;;;;;;7.80;7.20;;;;;;;36.95;58.37;100585.28;4960304;28;20296;-77
2022/07/24 07:06:21;;;;;;;6.85;6.32;;;;;;;37.03;58.41;100587.09;4947218;28;20197;-77
2022/07/24 07:08:47;;;;;;;6.75;6.30;;;;;;;37.05;58.32;100598.53;4940215;28;20222;-77
2022/07/24 07:11:12;;;;;;;6.97;6.47;;;;;;;37.03;58.09;100585.22;4947555;29;20198;-76
2022/07/24 07:13:37;;;;;;;6.95;6.45;;;;;;;36.98;58.33;100587.63;4950931;28;20233;-76
2022/07/24 07:16:03;;;;;;;7.53;6.93;;;;;;;36.91;58.17;100592.84;4946773;28;20182;-75
2022/07/24 07:18:28;;;;;;;7.72;7.13;;;;;;;36.94;58.29;100588.16;4944368;28;20759;-78
2022/07/24 07:20:54;;;;;;;6.75;6.32;;;;;;;36.82;58.50;100585.84;4947905;29;20182;-76
2022/07/24 07:23:26;;;;;;;7.40;6.85;;;;;;;36.75;58.73;100583.03;4941868;29;20197;-77
2022/07/24 07:25:53;;;;;;;7.38;6.88;;;;;;;36.66;58.63;100580.56;4947975;28;20269;-77
2022/07/24 07:28:18;;;;;;;7.43;6.93;;;;;;;36.60;58.69;100585.69;4949587;28;20222;-76
2022/07/24 07:30:44;;;;;;;6.82;6.35;;;;;;;36.63;57.78;100576.38;4945604;28;20667;-77
2022/07/24 07:33:09;;;;;;;7.97;7.38;;;;;;;36.49;58.23;100580.66;4965867;28;20282;-77
2022/07/24 07:35:34;;;;;;;8.00;7.47;;;;;;;36.41;58.26;100572.63;4945356;29;20646;-78
2022/07/24 07:38:00;;;;;;;6.93;6.50;;;;;;;36.38;57.94;100573.78;4943450;29;20198;-77
2022/07/24 07:40:25;;;;;;;7.30;6.80;;;;;;;36.29;58.25;100567.63;4961131;28;20920;-77
2022/07/24 07:42:51;;;;;;;7.28;6.78;;;;;;;36.15;58.39;100568.38;4950252;28;20203;-75
2022/07/24 07:45:16;;;;;;;7.07;6.57;;;;;;;36.01;58.67;100559.97;4964772;28;20194;-76
2022/07/24 07:47:42;;;;;;;8.18;7.45;;;;;;;35.93;58.80;100565.38;4951014;28;20218;-77
2022/07/24 07:50:08;;;;;;;7.22;6.72;;;;;;;35.80;58.97;100562.41;4972270;28;20206;-76
2022/07/24 07:52:33;;;;;;;7.40;6.90;;;;;;;35.60;59.04;100564.66;4950778;28;20190;-78
2022/07/24 07:54:59;;;;;;;6.80;6.30;;;;;;;35.34;59.56;100563.81;4948959;29;20222;-77
2022/07/24 07:57:24;;;;;;;7.18;6.75;;;;;;;35.08;60.71;100564.00;4938280;28;20195;-76
2022/07/24 07:59:50;;;;;;;8.07;7.47;;;;;;;34.90;61.49;100556.91;4943803;28;20224;-77
2022/07/24 08:02:15;;;;;;;7.78;7.20;;;;;;;34.83;60.97;100552.34;4962238;28;20190;-77
2022/07/24 08:04:41;;;;;;;7.32;6.82;;;;;;;34.69;60.97;100551.19;4949099;28;20674;-76
2022/07/24 08:07:06;;;;;;;7.35;6.75;;;;;;;34.54;60.92;100556.34;4943520;28;20225;-76
2022/07/24 08:09:32;;;;;;;7.97;7.38;;;;;;;34.39;61.16;100554.28;4952814;28;20222;-78
2022/07/24 08:11:57;;;;;;;7.25;6.82;;;;;;;34.30;61.79;100555.25;4948835;28;20254;-77
2022/07/24 08:14:22;;;;;;;8.00;7.50;;;;;;;34.13;61.85;100557.03;4944530;29;20193;-79
2022/07/24 08:16:48;;;;;;;8.35;7.75;;;;;;;33.94;61.83;100553.63;4946295;28;20186;-76
2022/07/24 08:19:13;;;;;;;8.32;7.72;;;;;;;33.75;62.75;100557.31;4946809;28;20330;-76
2022/07/24 08:21:39;;;;;;;8.25;7.72;;;;;;;33.57;63.13;100563.63;4948841;28;20210;-75
2022/07/24 08:24:04;;;;;;;8.23;7.72;;;;;;;33.40;63.06;100554.59;4948689;28;20667;-76
2022/07/24 08:26:30;;;;;;;8.38;7.78;;;;;;;33.24;62.86;100554.44;4947957;28;20206;-77
2022/07/24 08:28:57;;;;;;;8.48;7.88;;;;;;;33.05;63.83;100552.78;4945268;28;20210;-78
2022/07/24 08:31:26;;;;;;;8.75;8.07;;;;;;;32.87;64.70;100556.31;4936607;28;20709;-76
2022/07/24 08:33:52;;;;;;;8.57;7.95;;;;;;;32.69;65.43;100557.13;4949520;28;20194;-77
2022/07/24 08:36:17;;;;;;;9.00;8.40;;;;;;;32.58;65.39;100549.31;4947731;28;20218;-76
2022/07/24 08:38:43;;;;;;;8.10;7.50;;;;;;;32.43;65.77;100549.00;4963892;28;20246;-79
2022/07/24 08:41:10;;;;;;;8.15;7.55;;;;;;;32.47;64.83;100550.38;4946829;28;20539;-76
2022/07/24 08:43:36;;;;;;;8.25;7.65;;;;;;;32.26;65.17;100552.47;4945675;29;20214;-76
2022/07/24 08:46:03;;;;;;;8.02;7.50;;;;;;;32.04;65.35;100550.03;4947386;29;20278;-78
2022/07/24 08:48:29;;;;;;;8.43;7.85;;;;;;;31.88;65.77;100553.31;4964820;28;20293;-76
2022/07/24 08:50:55;;;;;;;8.52;7.80;;;;;;;31.72;65.87;100547.72;4947164;28;20663;-77
2022/07/24 08:53:22;;;;;;;8.23;7.63;;;;;;;31.56;66.16;100546.47;4962631;28;20198;-76
2022/07/24 08:55:48;;;;;;;9.73;8.93;;;;;;;31.39;66.11;100556.09;4949656;28;20194;-78
2022/07/24 08:58:14;;;;;;;8.98;8.32;;;;;;;31.22;66.97;100555.00;4958899;28;20265;-78
2022/07/24 09:00:39;;;;;;;8.70;8.10;;;;;;;31.10;66.62;100556.09;4944987;28;20190;-77
2022/07/24 09:03:05;;;;;;;8.95;8.32;;;;;;;31.03;67.12;100553.13;4946421;28;20194;-77
2022/07/24 09:05:34;;;;;;;7.82;7.28;;;;;;;30.89;64.20;100549.06;4942085;29;20244;-78
2022/07/24 09:08:15;;;;;;;8.57;7.87;;;;;;;30.63;65.78;100549.59;4950972;28;20209;-77
2022/07/24 09:10:52;;;;;;;7.90;7.40;;;;;;;30.59;66.61;100545.53;4948358;28;20187;-77
2022/07/24 09:13:17;;;;;;;8.63;8.03;;;;;;;30.60;66.28;100541.03;4948918;28;20190;-76
2022/07/24 09:15:48;;;;;;;8.43;7.73;;;;;;;30.61;66.18;100543.56;4948965;28;20561;-76
2022/07/24 09:18:33;;;;;;;7.80;7.07;;;;;;;30.57;66.67;100544.81;4948367;28;20179;-76
2022/07/24 09:21:12;;;;;;;7.83;7.30;;;;;;;30.58;67.02;100541.16;4942718;28;20323;-76
2022/07/24 09:23:39;;;;;;;8.23;7.63;;;;;;;30.58;66.85;100535.81;4949833;28;20205;-76
2022/07/24 09:26:04;;;;;;;7.47;6.97;;;;;;;30.57;66.73;100531.47;4953586;28;20241;-77
2022/07/24 09:28:45;;;;;;;8.43;7.80;;;;;;;30.64;66.89;100537.09;4971516;28;20231;-78
2022/07/24 09:31:10;;;;;;;7.37;6.87;;;;;;;30.68;66.83;100536.69;4945145;28;20202;-76
2022/07/24 09:33:36;;;;;;;7.07;6.53;;;;;;;30.62;65.54;100537.25;4968016;28;20195;-77
2022/07/24 09:36:12;;;;;;;7.60;7.07;;;;;;;30.59;66.23;100534.84;4949648;28;20194;-76
2022/07/24 09:38:38;;;;;;;6.90;6.40;;;;;;;30.66;66.21;100532.47;4945688;28;20896;-77
2022/07/24 09:41:04;;;;;;;7.67;7.17;;;;;;;30.71;64.93;100531.06;4950537;28;20178;-76
2022/07/24 09:43:34;;;;;;;7.37;6.87;;;;;;;30.67;65.13;100529.66;4947021;28;20183;-77
2022/07/24 09:46:02;;;;;;;7.03;6.53;;;;;;;30.63;65.95;100525.56;4944787;28;20266;-77
2022/07/24 09:48:36;;;;;;;7.13;6.63;;;;;;;30.70;66.11;100515.19;4944512;28;20301;-77
2022/07/24 09:51:10;;;;;;;6.80;6.33;;;;;;;30.75;65.93;100514.75;4948173;28;20277;-78
2022/07/24 09:53:36;;;;;;;7.43;6.93;;;;;;;30.73;65.22;100514.88;4945326;29;20285;-76
2022/07/24 09:56:06;;;;;;;7.20;6.70;;;;;;;30.73;64.45;100520.22;4949879;28;20298;-76
2022/07/24 09:58:37;;;;;;;7.63;7.03;;;;;;;30.71;63.99;100516.84;4949307;28;20445;-77
2022/07/24 10:01:05;;;;;;;7.70;7.10;;;;;;;30.78;64.48;100526.00;4949373;28;20237;-76
2022/07/24 10:03:34;;;;;;;6.90;6.40;;;;;;;30.76;64.26;100521.78;4948178;28;20187;-78
2022/07/24 10:06:03;;;;;;;7.70;7.10;;;;;;;30.76;62.72;100511.09;4947129;28;20209;-76
2022/07/24 10:08:30;;;;;;;7.40;6.80;;;;;;;30.67;61.96;100512.78;4951010;28;20562;-76
2022/07/24 10:10:56;;;;;;;7.43;6.90;;;;;;;30.66;61.74;100511.94;4945841;28;20190;-76
2022/07/24 10:13:24;;;;;;;7.60;7.00;;;;;;;30.53;60.82;100501.50;4962650;28;20306;-76
2022/07/24 10:16:04;;;;;;;7.00;6.50;;;;;;;30.50;60.60;100503.59;4949925;28;20201;-76
2022/07/24 10:18:44;;;;;;;6.63;6.23;;;;;;;30.60;61.85;100500.97;4959176;28;20723;-76
2022/07/24 10:21:18;;;;;;;6.53;6.03;;;;;;;30.71;61.21;100507.03;4946247;28;20189;-76
2022/07/24 10:24:06;;;;;;;6.28;5.88;;;;;;;30.81;61.14;100509.69;4949075;29;20178;-76
2022/07/24 10:26:48;;;;;;;6.83;6.33;;;;;;;30.93;61.51;100505.06;4928915;29;20206;-76
2022/07/24 10:29:19;;;;;;;6.43;5.93;;;;;;;31.03;60.68;100505.03;4944561;28;20305;-76
2022/07/24 10:31:49;;;;;;;6.67;6.17;;;;;;;30.99;59.77;100509.81;4967818;28;20187;-77
2022/07/24 10:34:24;;;;;;;6.67;6.27;;;;;;;30.95;59.81;100497.72;4946272;28;20182;-75
2022/07/24 10:37:14;;;;;;;6.17;5.77;;;;;;;30.91;60.44;100499.00;4962906;28;20186;-76
2022/07/24 10:39:58;;;;;;;6.90;6.20;;;;;;;30.92;59.85;100502.50;4965103;28;20211;-76
2022/07/24 10:42:24;;;;;;;7.07;6.43;;;;;;;30.86;59.19;100488.72;4951078;28;20186;-77
2022/07/24 10:45:18;;;;;;;6.63;6.13;;;;;;;30.78;59.66;100488.59;4951917;28;20270;-76
2022/07/24 10:47:45;;;;;;;6.30;5.80;;;;;;;30.83;59.21;100488.16;4945302;28;20211;-76
2022/07/24 10:50:11;;;;;;;6.63;6.10;;;;;;;30.77;59.49;100489.59;4942805;28;20201;-77
2022/07/24 10:52:39;;;;;;;6.20;5.80;;;;;;;30.80;59.93;100491.97;4945899;28;20243;-77
2022/07/24 10:55:28;;;;;;;6.20;5.80;;;;;;;30.81;59.90;100482.97;4947282;28;20190;-79
2022/07/24 10:57:57;;;;;;;6.20;5.80;;;;;;;30.82;59.32;100473.13;4961599;28;20254;-77
2022/07/24 11:00:23;;;;;;;5.67;5.27;;;;;;;30.81;59.36;100474.09;4949254;28;20245;-77
2022/07/24 11:02:57;;;;;;;5.70;5.20;;;;;;;30.90;59.14;100472.41;4942661;28;20678;-78
2022/07/24 11:05:40;;;;;;;5.45;5.05;;;;;;;30.99;59.12;100468.91;4949683;28;20261;-77
2022/07/24 11:08:13;;;;;;;5.47;5.10;;;;;;;31.04;58.87;100465.81;4950345;28;20565;-77
2022/07/24 11:10:53;;;;;;;5.65;5.25;;;;;;;31.13;58.70;100460.47;4945060;28;20186;-77
2022/07/24 11:13:38;;;;;;;5.37;4.97;;;;;;;31.19;58.95;100467.06;4947512;28;20273;-78
2022/07/24 11:16:10;;;;;;;5.40;5.00;;;;;;;31.30;58.79;100464.22;4950341;28;20277;-76
2022/07/24 11:18:41;;;;;;;5.27;4.77;;;;;;;31.39;58.68;100464.31;4943894;28;20325;-76
2022/07/24 11:21:08;;;;;;;5.70;5.30;;;;;;;31.46;58.83;100460.09;4945703;28;20229;-77